sensor_id;sensor_type;location;lat;lon;timestamp;P1;durP1;ratioP1;P2;durP2;ratioP2
5898;SDS011;2975;50.956;6.962;2022-10-16T00:00:36;2.13;;;1.57;;
5898;SDS011;2975;50.956;6.962;2022-10-16T00:03:04;3.57;;;1.57;;
5898;SDS011;2975;50.956;6.962;2022-10-16T00:05:30;2.23;;;2.03;;
5898;SDS011;2975;50.956;6.962;2022-10-16T00:07:56;2.13;;;1.83;;
5898;SDS011;2975;50.956;6.962;2022-10-16T00:10:21;2.30;;;1.60;;
5898;SDS011;2975;50.956;6.962;2022-10-16T00:12:47;2.10;;;1.70;;
5898;SDS011;2975;50.956;6.962;2022-10-16T00:15:13;4.83;;;1.73;;
5898;SDS011;2975;50.956;6.962;2022-10-16T00:17:39;4.07;;;2.07;;
5898;SDS011;2975;50.956;6.962;2022-10-16T00:20:05;3.30;;;2.23;;
5898;SDS011;2975;50.956;6.962;2022-10-16T00:22:31;2.00;;;1.90;;
5898;SDS011;2975;50.956;6.962;2022-10-16T00:24:57;2.73;;;2.20;;
5898;SDS011;2975;50.956;6.962;2022-10-16T00:27:23;3.93;;;1.90;;
5898;SDS011;2975;50.956;6.962;2022-10-16T00:29:51;2.43;;;1.90;;
5898;SDS011;2975;50.956;6.962;2022-10-16T00:32:18;3.83;;;2.10;;
5898;SDS011;2975;50.956;6.962;2022-10-16T00:34:44;1.90;;;1.70;;
5898;SDS011;2975;50.956;6.962;2022-10-16T00:37:10;1.87;;;1.60;;
5898;SDS011;2975;50.956;6.962;2022-10-16T00:39:36;2.10;;;1.53;;
5898;SDS011;2975;50.956;6.962;2022-10-16T00:42:02;1.63;;;1.40;;
5898;SDS011;2975;50.956;6.962;2022-10-16T00:47:27;1.73;;;1.20;;
5898;SDS011;2975;50.956;6.962;2022-10-16T00:49:59;1.30;;;1.20;;
5898;SDS011;2975;50.956;6.962;2022-10-16T00:52:30;1.50;;;1.40;;
5898;SDS011;2975;50.956;6.962;2022-10-16T00:54:56;1.33;;;1.27;;
5898;SDS011;2975;50.956;6.962;2022-10-16T00:57:22;1.30;;;1.20;;
5898;SDS011;2975;50.956;6.962;2022-10-16T00:59:49;4.57;;;2.10;;
5898;SDS011;2975;50.956;6.962;2022-10-16T01:02:15;1.60;;;1.50;;
5898;SDS011;2975;50.956;6.962;2022-10-16T01:04:43;2.17;;;1.37;;
5898;SDS011;2975;50.956;6.962;2022-10-16T01:18:24;2.60;;;1.07;;
5898;SDS011;2975;50.956;6.962;2022-10-16T01:21:27;1.10;;;1.10;;
5898;SDS011;2975;50.956;6.962;2022-10-16T01:29:15;1.73;;;1.10;;
5898;SDS011;2975;50.956;6.962;2022-10-16T01:31:57;2.20;;;1.30;;
5898;SDS011;2975;50.956;6.962;2022-10-16T01:40:06;3.43;;;1.43;;
5898;SDS011;2975;50.956;6.962;2022-10-16T01:42:37;2.30;;;1.20;;
5898;SDS011;2975;50.956;6.962;2022-10-16T01:45:07;1.43;;;1.20;;
5898;SDS011;2975;50.956;6.962;2022-10-16T01:47:36;1.50;;;1.40;;
5898;SDS011;2975;50.956;6.962;2022-10-16T01:50:04;2.23;;;1.40;;
5898;SDS011;2975;50.956;6.962;2022-10-16T01:52:31;1.57;;;1.00;;
5898;SDS011;2975;50.956;6.962;2022-10-16T01:55:00;1.80;;;1.10;;
5898;SDS011;2975;50.956;6.962;2022-10-16T01:57:27;2.93;;;1.30;;
5898;SDS011;2975;50.956;6.962;2022-10-16T01:59:56;2.00;;;1.60;;
5898;SDS011;2975;50.956;6.962;2022-10-16T02:02:26;2.10;;;1.20;;
5898;SDS011;2975;50.956;6.962;2022-10-16T02:04:55;4.73;;;0.93;;
5898;SDS011;2975;50.956;6.962;2022-10-16T02:07:26;2.20;;;1.30;;
5898;SDS011;2975;50.956;6.962;2022-10-16T02:09:52;2.13;;;1.00;;
5898;SDS011;2975;50.956;6.962;2022-10-16T02:12:21;2.03;;;1.30;;
5898;SDS011;2975;50.956;6.962;2022-10-16T02:14:55;1.30;;;1.20;;
5898;SDS011;2975;50.956;6.962;2022-10-16T02:17:20;1.83;;;1.17;;
5898;SDS011;2975;50.956;6.962;2022-10-16T02:19:47;3.57;;;1.40;;
5898;SDS011;2975;50.956;6.962;2022-10-16T02:22:15;1.30;;;1.20;;
5898;SDS011;2975;50.956;6.962;2022-10-16T02:24:54;2.73;;;1.20;;
5898;SDS011;2975;50.956;6.962;2022-10-16T02:29:55;1.57;;;1.20;;
5898;SDS011;2975;50.956;6.962;2022-10-16T02:32:32;1.70;;;1.20;;
5898;SDS011;2975;50.956;6.962;2022-10-16T02:34:59;1.73;;;1.40;;
5898;SDS011;2975;50.956;6.962;2022-10-16T02:37:26;0.93;;;0.93;;
5898;SDS011;2975;50.956;6.962;2022-10-16T02:39:53;0.90;;;0.90;;
5898;SDS011;2975;50.956;6.962;2022-10-16T02:42:20;1.30;;;1.10;;
5898;SDS011;2975;50.956;6.962;2022-10-16T02:44:52;1.13;;;1.00;;
5898;SDS011;2975;50.956;6.962;2022-10-16T02:47:17;2.60;;;1.10;;
5898;SDS011;2975;50.956;6.962;2022-10-16T02:49:43;1.33;;;0.90;;
5898;SDS011;2975;50.956;6.962;2022-10-16T02:52:09;3.03;;;1.00;;
5898;SDS011;2975;50.956;6.962;2022-10-16T02:54:34;1.00;;;1.00;;
5898;SDS011;2975;50.956;6.962;2022-10-16T02:57:00;4.40;;;1.10;;
5898;SDS011;2975;50.956;6.962;2022-10-16T02:59:25;0.77;;;0.70;;
5898;SDS011;2975;50.956;6.962;2022-10-16T03:01:51;2.90;;;1.10;;
5898;SDS011;2975;50.956;6.962;2022-10-16T03:21:23;2.70;;;1.10;;
5898;SDS011;2975;50.956;6.962;2022-10-16T03:23:48;0.97;;;0.90;;
5898;SDS011;2975;50.956;6.962;2022-10-16T03:26:14;0.80;;;0.80;;
5898;SDS011;2975;50.956;6.962;2022-10-16T03:28:39;1.00;;;0.90;;
5898;SDS011;2975;50.956;6.962;2022-10-16T03:31:05;1.20;;;0.93;;
5898;SDS011;2975;50.956;6.962;2022-10-16T03:33:31;2.00;;;0.97;;
5898;SDS011;2975;50.956;6.962;2022-10-16T03:35:57;4.07;;;1.10;;
5898;SDS011;2975;50.956;6.962;2022-10-16T03:38:22;1.47;;;1.00;;
5898;SDS011;2975;50.956;6.962;2022-10-16T03:40:48;2.00;;;0.80;;
5898;SDS011;2975;50.956;6.962;2022-10-16T03:43:13;1.57;;;0.90;;
5898;SDS011;2975;50.956;6.962;2022-10-16T03:45:39;0.80;;;0.80;;
5898;SDS011;2975;50.956;6.962;2022-10-16T03:48:05;1.47;;;0.97;;
5898;SDS011;2975;50.956;6.962;2022-10-16T03:50:31;2.63;;;1.13;;
5898;SDS011;2975;50.956;6.962;2022-10-16T03:52:56;2.10;;;1.00;;
5898;SDS011;2975;50.956;6.962;2022-10-16T03:55:22;2.63;;;0.90;;
5898;SDS011;2975;50.956;6.962;2022-10-16T03:57:48;2.30;;;0.90;;
5898;SDS011;2975;50.956;6.962;2022-10-16T04:00:13;2.50;;;0.80;;
5898;SDS011;2975;50.956;6.962;2022-10-16T04:02:39;1.90;;;1.10;;
5898;SDS011;2975;50.956;6.962;2022-10-16T04:05:05;1.07;;;0.97;;
5898;SDS011;2975;50.956;6.962;2022-10-16T04:07:31;1.53;;;0.80;;
5898;SDS011;2975;50.956;6.962;2022-10-16T04:09:57;0.70;;;0.67;;
5898;SDS011;2975;50.956;6.962;2022-10-16T04:12:24;3.90;;;1.00;;
5898;SDS011;2975;50.956;6.962;2022-10-16T04:14:50;6.10;;;0.90;;
5898;SDS011;2975;50.956;6.962;2022-10-16T04:17:16;1.50;;;0.90;;
5898;SDS011;2975;50.956;6.962;2022-10-16T04:19:42;0.83;;;0.80;;
5898;SDS011;2975;50.956;6.962;2022-10-16T04:22:07;2.60;;;0.83;;
5898;SDS011;2975;50.956;6.962;2022-10-16T04:24:33;0.80;;;0.80;;
5898;SDS011;2975;50.956;6.962;2022-10-16T04:26:58;1.50;;;0.90;;
5898;SDS011;2975;50.956;6.962;2022-10-16T04:29:24;6.53;;;1.00;;
5898;SDS011;2975;50.956;6.962;2022-10-16T04:31:50;1.70;;;0.80;;
5898;SDS011;2975;50.956;6.962;2022-10-16T04:34:15;3.00;;;0.80;;
5898;SDS011;2975;50.956;6.962;2022-10-16T04:36:41;1.70;;;1.40;;
5898;SDS011;2975;50.956;6.962;2022-10-16T04:39:06;2.43;;;1.17;;
5898;SDS011;2975;50.956;6.962;2022-10-16T04:41:32;2.77;;;1.03;;
5898;SDS011;2975;50.956;6.962;2022-10-16T04:43:58;0.80;;;0.80;;
5898;SDS011;2975;50.956;6.962;2022-10-16T04:46:23;1.37;;;0.87;;
5898;SDS011;2975;50.956;6.962;2022-10-16T04:48:49;2.37;;;0.93;;
5898;SDS011;2975;50.956;6.962;2022-10-16T04:51:15;1.43;;;0.80;;
5898;SDS011;2975;50.956;6.962;2022-10-16T04:53:40;1.43;;;0.80;;
5898;SDS011;2975;50.956;6.962;2022-10-16T04:56:06;2.13;;;0.83;;
5898;SDS011;2975;50.956;6.962;2022-10-16T04:58:31;0.90;;;0.90;;
5898;SDS011;2975;50.956;6.962;2022-10-16T05:00:57;0.80;;;0.80;;
5898;SDS011;2975;50.956;6.962;2022-10-16T05:03:23;0.87;;;0.80;;
5898;SDS011;2975;50.956;6.962;2022-10-16T05:05:49;1.67;;;0.77;;
5898;SDS011;2975;50.956;6.962;2022-10-16T05:08:15;2.00;;;0.80;;
5898;SDS011;2975;50.956;6.962;2022-10-16T05:10:41;0.90;;;0.90;;
5898;SDS011;2975;50.956;6.962;2022-10-16T05:13:08;2.43;;;0.80;;
5898;SDS011;2975;50.956;6.962;2022-10-16T05:15:33;1.07;;;1.00;;
5898;SDS011;2975;50.956;6.962;2022-10-16T05:17:59;1.83;;;0.90;;
5898;SDS011;2975;50.956;6.962;2022-10-16T05:20:25;1.10;;;1.00;;
5898;SDS011;2975;50.956;6.962;2022-10-16T05:22:50;2.33;;;0.90;;
5898;SDS011;2975;50.956;6.962;2022-10-16T05:25:16;1.40;;;0.70;;
5898;SDS011;2975;50.956;6.962;2022-10-16T05:27:42;0.97;;;0.97;;
5898;SDS011;2975;50.956;6.962;2022-10-16T05:30:08;2.03;;;0.77;;
5898;SDS011;2975;50.956;6.962;2022-10-16T05:32:34;1.13;;;0.90;;
5898;SDS011;2975;50.956;6.962;2022-10-16T05:34:59;1.03;;;0.93;;
5898;SDS011;2975;50.956;6.962;2022-10-16T05:37:27;2.90;;;0.80;;
5898;SDS011;2975;50.956;6.962;2022-10-16T05:39:52;2.33;;;1.07;;
5898;SDS011;2975;50.956;6.962;2022-10-16T05:42:18;2.23;;;0.90;;
5898;SDS011;2975;50.956;6.962;2022-10-16T05:44:43;0.90;;;0.77;;
5898;SDS011;2975;50.956;6.962;2022-10-16T05:47:09;1.87;;;1.10;;
5898;SDS011;2975;50.956;6.962;2022-10-16T05:49:35;3.43;;;0.90;;
5898;SDS011;2975;50.956;6.962;2022-10-16T05:52:01;1.30;;;1.20;;
5898;SDS011;2975;50.956;6.962;2022-10-16T05:54:27;1.10;;;1.00;;
5898;SDS011;2975;50.956;6.962;2022-10-16T05:56:52;3.57;;;2.17;;
5898;SDS011;2975;50.956;6.962;2022-10-16T05:59:18;3.13;;;1.20;;
5898;SDS011;2975;50.956;6.962;2022-10-16T06:01:43;4.00;;;1.30;;
5898;SDS011;2975;50.956;6.962;2022-10-16T06:04:09;2.20;;;1.50;;
5898;SDS011;2975;50.956;6.962;2022-10-16T06:06:35;1.83;;;1.43;;
5898;SDS011;2975;50.956;6.962;2022-10-16T06:09:01;2.13;;;1.10;;
5898;SDS011;2975;50.956;6.962;2022-10-16T06:11:29;1.17;;;0.97;;
5898;SDS011;2975;50.956;6.962;2022-10-16T06:13:56;0.60;;;0.60;;
5898;SDS011;2975;50.956;6.962;2022-10-16T06:16:25;4.00;;;1.20;;
5898;SDS011;2975;50.956;6.962;2022-10-16T06:18:51;3.80;;;1.40;;
5898;SDS011;2975;50.956;6.962;2022-10-16T06:21:19;5.83;;;1.67;;
5898;SDS011;2975;50.956;6.962;2022-10-16T06:23:46;1.10;;;1.00;;
5898;SDS011;2975;50.956;6.962;2022-10-16T06:26:13;1.13;;;1.03;;
5898;SDS011;2975;50.956;6.962;2022-10-16T06:28:44;3.00;;;0.87;;
5898;SDS011;2975;50.956;6.962;2022-10-16T06:31:10;4.30;;;1.20;;
5898;SDS011;2975;50.956;6.962;2022-10-16T06:33:36;1.90;;;1.17;;
5898;SDS011;2975;50.956;6.962;2022-10-16T06:38:30;2.90;;;1.00;;
5898;SDS011;2975;50.956;6.962;2022-10-16T06:40:56;1.17;;;1.07;;
5898;SDS011;2975;50.956;6.962;2022-10-16T06:43:22;5.00;;;1.17;;
5898;SDS011;2975;50.956;6.962;2022-10-16T06:45:51;2.00;;;1.00;;
5898;SDS011;2975;50.956;6.962;2022-10-16T06:48:21;1.83;;;1.17;;
5898;SDS011;2975;50.956;6.962;2022-10-16T06:53:26;4.27;;;1.20;;
5898;SDS011;2975;50.956;6.962;2022-10-16T06:55:53;1.60;;;0.97;;
5898;SDS011;2975;50.956;6.962;2022-10-16T06:58:19;1.07;;;0.97;;
5898;SDS011;2975;50.956;6.962;2022-10-16T07:00:45;4.97;;;1.00;;
5898;SDS011;2975;50.956;6.962;2022-10-16T07:03:11;2.73;;;1.30;;
5898;SDS011;2975;50.956;6.962;2022-10-16T07:05:43;1.50;;;1.07;;
5898;SDS011;2975;50.956;6.962;2022-10-16T07:08:09;2.67;;;1.20;;
5898;SDS011;2975;50.956;6.962;2022-10-16T07:10:34;2.23;;;1.00;;
5898;SDS011;2975;50.956;6.962;2022-10-16T07:13:00;1.37;;;0.90;;
5898;SDS011;2975;50.956;6.962;2022-10-16T07:15:26;1.00;;;0.90;;
5898;SDS011;2975;50.956;6.962;2022-10-16T07:17:52;1.43;;;0.90;;
5898;SDS011;2975;50.956;6.962;2022-10-16T07:20:18;1.43;;;1.27;;
5898;SDS011;2975;50.956;6.962;2022-10-16T07:22:44;5.33;;;0.97;;
5898;SDS011;2975;50.956;6.962;2022-10-16T07:25:10;2.40;;;0.80;;
5898;SDS011;2975;50.956;6.962;2022-10-16T07:27:36;1.23;;;1.10;;
5898;SDS011;2975;50.956;6.962;2022-10-16T07:30:02;2.23;;;1.17;;
5898;SDS011;2975;50.956;6.962;2022-10-16T07:32:28;1.17;;;0.90;;
5898;SDS011;2975;50.956;6.962;2022-10-16T07:34:54;0.80;;;0.80;;
5898;SDS011;2975;50.956;6.962;2022-10-16T07:37:20;1.00;;;1.00;;
5898;SDS011;2975;50.956;6.962;2022-10-16T07:39:47;2.50;;;1.03;;
5898;SDS011;2975;50.956;6.962;2022-10-16T07:42:12;1.87;;;1.00;;
5898;SDS011;2975;50.956;6.962;2022-10-16T07:44:38;2.03;;;1.00;;
5898;SDS011;2975;50.956;6.962;2022-10-16T07:47:04;1.17;;;1.00;;
5898;SDS011;2975;50.956;6.962;2022-10-16T07:49:30;2.97;;;1.10;;
5898;SDS011;2975;50.956;6.962;2022-10-16T07:51:56;1.20;;;1.10;;
5898;SDS011;2975;50.956;6.962;2022-10-16T07:54:21;2.07;;;0.93;;
5898;SDS011;2975;50.956;6.962;2022-10-16T07:56:47;1.20;;;1.03;;
5898;SDS011;2975;50.956;6.962;2022-10-16T07:59:13;2.90;;;0.97;;
5898;SDS011;2975;50.956;6.962;2022-10-16T08:01:38;1.37;;;0.90;;
5898;SDS011;2975;50.956;6.962;2022-10-16T08:04:04;0.90;;;0.90;;
5898;SDS011;2975;50.956;6.962;2022-10-16T08:06:34;0.93;;;0.93;;
5898;SDS011;2975;50.956;6.962;2022-10-16T08:09:01;3.10;;;1.20;;
5898;SDS011;2975;50.956;6.962;2022-10-16T08:11:27;3.30;;;1.50;;
5898;SDS011;2975;50.956;6.962;2022-10-16T08:13:53;2.70;;;1.27;;
5898;SDS011;2975;50.956;6.962;2022-10-16T08:16:18;2.40;;;0.90;;
5898;SDS011;2975;50.956;6.962;2022-10-16T08:18:44;1.10;;;1.00;;
5898;SDS011;2975;50.956;6.962;2022-10-16T08:21:14;1.03;;;0.90;;
5898;SDS011;2975;50.956;6.962;2022-10-16T08:23:41;0.90;;;0.90;;
5898;SDS011;2975;50.956;6.962;2022-10-16T08:26:09;0.83;;;0.83;;
5898;SDS011;2975;50.956;6.962;2022-10-16T08:28:35;3.63;;;0.97;;
5898;SDS011;2975;50.956;6.962;2022-10-16T08:31:12;1.93;;;1.10;;
5898;SDS011;2975;50.956;6.962;2022-10-16T08:33:40;1.90;;;0.93;;
5898;SDS011;2975;50.956;6.962;2022-10-16T08:36:07;1.10;;;0.90;;
5898;SDS011;2975;50.956;6.962;2022-10-16T08:38:35;1.73;;;0.80;;
5898;SDS011;2975;50.956;6.962;2022-10-16T08:44:02;2.23;;;1.10;;
5898;SDS011;2975;50.956;6.962;2022-10-16T08:49:31;1.93;;;0.90;;
5898;SDS011;2975;50.956;6.962;2022-10-16T08:51:57;1.30;;;0.80;;
5898;SDS011;2975;50.956;6.962;2022-10-16T08:54:25;1.77;;;1.03;;
5898;SDS011;2975;50.956;6.962;2022-10-16T08:57:19;0.80;;;0.80;;
5898;SDS011;2975;50.956;6.962;2022-10-16T08:59:46;0.70;;;0.70;;
5898;SDS011;2975;50.956;6.962;2022-10-16T09:02:26;0.60;;;0.60;;
5898;SDS011;2975;50.956;6.962;2022-10-16T09:18:33;0.77;;;0.70;;
5898;SDS011;2975;50.956;6.962;2022-10-16T09:23:53;0.83;;;0.83;;
5898;SDS011;2975;50.956;6.962;2022-10-16T09:26:22;0.60;;;0.60;;
5898;SDS011;2975;50.956;6.962;2022-10-16T09:28:47;1.60;;;0.90;;
5898;SDS011;2975;50.956;6.962;2022-10-16T09:31:17;4.83;;;1.50;;
5898;SDS011;2975;50.956;6.962;2022-10-16T09:33:45;2.37;;;0.90;;
5898;SDS011;2975;50.956;6.962;2022-10-16T09:36:16;2.77;;;2.33;;
5898;SDS011;2975;50.956;6.962;2022-10-16T09:38:42;1.63;;;0.70;;
5898;SDS011;2975;50.956;6.962;2022-10-16T09:41:21;0.93;;;0.93;;
5898;SDS011;2975;50.956;6.962;2022-10-16T09:43:57;1.57;;;0.80;;
5898;SDS011;2975;50.956;6.962;2022-10-16T09:46:34;2.33;;;1.37;;
5898;SDS011;2975;50.956;6.962;2022-10-16T09:49:03;0.60;;;0.60;;
5898;SDS011;2975;50.956;6.962;2022-10-16T09:51:31;4.03;;;0.67;;
5898;SDS011;2975;50.956;6.962;2022-10-16T09:56:35;3.00;;;1.33;;
5898;SDS011;2975;50.956;6.962;2022-10-16T09:59:16;0.90;;;0.60;;
5898;SDS011;2975;50.956;6.962;2022-10-16T10:01:45;3.17;;;0.90;;
5898;SDS011;2975;50.956;6.962;2022-10-16T10:04:13;1.80;;;0.60;;
5898;SDS011;2975;50.956;6.962;2022-10-16T10:06:46;1.67;;;0.70;;
5898;SDS011;2975;50.956;6.962;2022-10-16T10:09:24;2.63;;;0.90;;
5898;SDS011;2975;50.956;6.962;2022-10-16T10:14:31;2.47;;;0.70;;
5898;SDS011;2975;50.956;6.962;2022-10-16T10:22:43;1.83;;;0.70;;
5898;SDS011;2975;50.956;6.962;2022-10-16T10:35:40;0.57;;;0.43;;
5898;SDS011;2975;50.956;6.962;2022-10-16T10:46:04;1.10;;;0.43;;
5898;SDS011;2975;50.956;6.962;2022-10-16T10:56:57;1.70;;;0.73;;
5898;SDS011;2975;50.956;6.962;2022-10-16T10:59:59;2.60;;;0.80;;
5898;SDS011;2975;50.956;6.962;2022-10-16T11:08:15;0.67;;;0.50;;
5898;SDS011;2975;50.956;6.962;2022-10-16T11:10:58;2.10;;;0.60;;
5898;SDS011;2975;50.956;6.962;2022-10-16T11:16:37;0.60;;;0.50;;
5898;SDS011;2975;50.956;6.962;2022-10-16T11:19:12;1.70;;;0.70;;
5898;SDS011;2975;50.956;6.962;2022-10-16T11:22:43;0.57;;;0.50;;
5898;SDS011;2975;50.956;6.962;2022-10-16T11:30:08;0.77;;;0.70;;
5898;SDS011;2975;50.956;6.962;2022-10-16T11:32:52;1.13;;;1.00;;
5898;SDS011;2975;50.956;6.962;2022-10-16T11:38:15;2.07;;;0.80;;
5898;SDS011;2975;50.956;6.962;2022-10-16T11:40:53;1.77;;;1.00;;
5898;SDS011;2975;50.956;6.962;2022-10-16T11:43:41;1.20;;;0.90;;
5898;SDS011;2975;50.956;6.962;2022-10-16T11:46:20;4.40;;;0.70;;
5898;SDS011;2975;50.956;6.962;2022-10-16T11:54:44;2.47;;;0.67;;
5898;SDS011;2975;50.956;6.962;2022-10-16T11:57:23;0.50;;;0.50;;
5898;SDS011;2975;50.956;6.962;2022-10-16T12:10:38;1.13;;;0.60;;
5898;SDS011;2975;50.956;6.962;2022-10-16T12:16:03;3.77;;;0.60;;
5898;SDS011;2975;50.956;6.962;2022-10-16T12:18:45;0.70;;;0.50;;
5898;SDS011;2975;50.956;6.962;2022-10-16T12:21:13;1.00;;;0.90;;
5898;SDS011;2975;50.956;6.962;2022-10-16T12:26:23;1.03;;;0.60;;
5898;SDS011;2975;50.956;6.962;2022-10-16T12:28:51;3.60;;;1.00;;
5898;SDS011;2975;50.956;6.962;2022-10-16T12:31:16;1.33;;;0.30;;
5898;SDS011;2975;50.956;6.962;2022-10-16T12:34:03;0.97;;;0.50;;
5898;SDS011;2975;50.956;6.962;2022-10-16T12:36:30;1.07;;;0.50;;
5898;SDS011;2975;50.956;6.962;2022-10-16T12:38:57;0.80;;;0.80;;
5898;SDS011;2975;50.956;6.962;2022-10-16T12:43:54;1.70;;;0.60;;
5898;SDS011;2975;50.956;6.962;2022-10-16T12:46:22;2.17;;;0.70;;
5898;SDS011;2975;50.956;6.962;2022-10-16T12:51:37;0.70;;;0.70;;
5898;SDS011;2975;50.956;6.962;2022-10-16T12:56:53;2.00;;;0.73;;
5898;SDS011;2975;50.956;6.962;2022-10-16T13:05:12;1.60;;;0.50;;
5898;SDS011;2975;50.956;6.962;2022-10-16T13:18:48;1.97;;;1.20;;
5898;SDS011;2975;50.956;6.962;2022-10-16T13:23:58;3.00;;;0.80;;
5898;SDS011;2975;50.956;6.962;2022-10-16T13:29:33;0.80;;;0.60;;
5898;SDS011;2975;50.956;6.962;2022-10-16T13:32:00;0.87;;;0.60;;
5898;SDS011;2975;50.956;6.962;2022-10-16T13:34:31;3.70;;;0.70;;
5898;SDS011;2975;50.956;6.962;2022-10-16T13:36:57;0.70;;;0.70;;
5898;SDS011;2975;50.956;6.962;2022-10-16T13:42:03;3.23;;;0.67;;
5898;SDS011;2975;50.956;6.962;2022-10-16T13:44:41;2.60;;;0.50;;
5898;SDS011;2975;50.956;6.962;2022-10-16T13:47:31;1.83;;;1.23;;
5898;SDS011;2975;50.956;6.962;2022-10-16T13:50:05;1.40;;;0.70;;
5898;SDS011;2975;50.956;6.962;2022-10-16T13:52:36;1.23;;;0.67;;
5898;SDS011;2975;50.956;6.962;2022-10-16T13:55:03;1.80;;;0.90;;
5898;SDS011;2975;50.956;6.962;2022-10-16T13:57:39;2.03;;;0.77;;
5898;SDS011;2975;50.956;6.962;2022-10-16T14:00:17;3.05;;;1.20;;
5898;SDS011;2975;50.956;6.962;2022-10-16T14:02:44;2.60;;;1.10;;
5898;SDS011;2975;50.956;6.962;2022-10-16T14:05:15;2.45;;;0.77;;
5898;SDS011;2975;50.956;6.962;2022-10-16T14:07:41;1.90;;;0.77;;
5898;SDS011;2975;50.956;6.962;2022-10-16T14:10:18;1.43;;;0.90;;
5898;SDS011;2975;50.956;6.962;2022-10-16T14:12:55;0.53;;;0.50;;
5898;SDS011;2975;50.956;6.962;2022-10-16T14:15:21;0.50;;;0.50;;
5898;SDS011;2975;50.956;6.962;2022-10-16T14:17:48;1.83;;;1.20;;
5898;SDS011;2975;50.956;6.962;2022-10-16T14:20:25;0.85;;;0.85;;
5898;SDS011;2975;50.956;6.962;2022-10-16T14:25:44;1.60;;;0.90;;
5898;SDS011;2975;50.956;6.962;2022-10-16T14:30:48;0.60;;;0.50;;
5898;SDS011;2975;50.956;6.962;2022-10-16T14:35:59;1.20;;;0.63;;
5898;SDS011;2975;50.956;6.962;2022-10-16T14:38:29;1.33;;;0.60;;
5898;SDS011;2975;50.956;6.962;2022-10-16T14:40:57;0.68;;;0.68;;
5898;SDS011;2975;50.956;6.962;2022-10-16T14:43:36;3.40;;;0.87;;
5898;SDS011;2975;50.956;6.962;2022-10-16T14:46:05;0.73;;;0.60;;
5898;SDS011;2975;50.956;6.962;2022-10-16T14:48:39;0.77;;;0.70;;
5898;SDS011;2975;50.956;6.962;2022-10-16T14:51:08;1.40;;;0.43;;
5898;SDS011;2975;50.956;6.962;2022-10-16T14:53:39;1.07;;;0.77;;
5898;SDS011;2975;50.956;6.962;2022-10-16T14:56:06;0.70;;;0.70;;
5898;SDS011;2975;50.956;6.962;2022-10-16T14:58:33;1.10;;;0.70;;
5898;SDS011;2975;50.956;6.962;2022-10-16T15:01:00;3.03;;;0.93;;
5898;SDS011;2975;50.956;6.962;2022-10-16T15:03:25;2.17;;;0.73;;
5898;SDS011;2975;50.956;6.962;2022-10-16T15:05:51;1.47;;;0.57;;
5898;SDS011;2975;50.956;6.962;2022-10-16T15:08:17;1.00;;;0.90;;
5898;SDS011;2975;50.956;6.962;2022-10-16T15:10:43;2.17;;;0.70;;
5898;SDS011;2975;50.956;6.962;2022-10-16T15:13:12;5.23;;;1.00;;
5898;SDS011;2975;50.956;6.962;2022-10-16T15:15:41;1.43;;;0.93;;
5898;SDS011;2975;50.956;6.962;2022-10-16T15:18:08;1.27;;;1.17;;
5898;SDS011;2975;50.956;6.962;2022-10-16T15:20:35;2.07;;;0.90;;
5898;SDS011;2975;50.956;6.962;2022-10-16T15:23:03;0.97;;;0.97;;
5898;SDS011;2975;50.956;6.962;2022-10-16T15:25:49;1.70;;;1.20;;
5898;SDS011;2975;50.956;6.962;2022-10-16T15:28:17;1.17;;;1.00;;
5898;SDS011;2975;50.956;6.962;2022-10-16T15:30:43;0.90;;;0.90;;
5898;SDS011;2975;50.956;6.962;2022-10-16T15:33:13;1.00;;;1.00;;
5898;SDS011;2975;50.956;6.962;2022-10-16T15:35:47;2.33;;;0.97;;
5898;SDS011;2975;50.956;6.962;2022-10-16T15:38:14;1.60;;;0.70;;
5898;SDS011;2975;50.956;6.962;2022-10-16T15:40:41;2.20;;;0.80;;
5898;SDS011;2975;50.956;6.962;2022-10-16T15:43:07;1.30;;;1.20;;
5898;SDS011;2975;50.956;6.962;2022-10-16T15:45:33;0.70;;;0.70;;
5898;SDS011;2975;50.956;6.962;2022-10-16T15:47:59;1.47;;;0.90;;
5898;SDS011;2975;50.956;6.962;2022-10-16T15:50:25;1.07;;;0.90;;
5898;SDS011;2975;50.956;6.962;2022-10-16T15:52:52;1.10;;;0.80;;
5898;SDS011;2975;50.956;6.962;2022-10-16T15:55:18;0.93;;;0.80;;
5898;SDS011;2975;50.956;6.962;2022-10-16T15:57:43;1.30;;;0.60;;
5898;SDS011;2975;50.956;6.962;2022-10-16T16:00:18;1.83;;;1.00;;
5898;SDS011;2975;50.956;6.962;2022-10-16T16:02:51;2.47;;;1.30;;
5898;SDS011;2975;50.956;6.962;2022-10-16T16:05:17;3.90;;;1.10;;
5898;SDS011;2975;50.956;6.962;2022-10-16T16:07:44;3.27;;;1.00;;
5898;SDS011;2975;50.956;6.962;2022-10-16T16:10:10;3.10;;;0.90;;
5898;SDS011;2975;50.956;6.962;2022-10-16T16:12:37;3.20;;;0.90;;
5898;SDS011;2975;50.956;6.962;2022-10-16T16:15:06;1.43;;;1.10;;
5898;SDS011;2975;50.956;6.962;2022-10-16T16:17:34;1.40;;;1.30;;
5898;SDS011;2975;50.956;6.962;2022-10-16T16:20:01;0.87;;;0.87;;
5898;SDS011;2975;50.956;6.962;2022-10-16T16:22:28;3.30;;;1.70;;
5898;SDS011;2975;50.956;6.962;2022-10-16T16:24:54;2.53;;;1.20;;
5898;SDS011;2975;50.956;6.962;2022-10-16T16:27:19;3.63;;;1.43;;
5898;SDS011;2975;50.956;6.962;2022-10-16T16:29:46;2.90;;;1.20;;
5898;SDS011;2975;50.956;6.962;2022-10-16T16:32:12;0.60;;;0.60;;
5898;SDS011;2975;50.956;6.962;2022-10-16T16:34:37;0.70;;;0.60;;
5898;SDS011;2975;50.956;6.962;2022-10-16T16:37:03;0.80;;;0.60;;
5898;SDS011;2975;50.956;6.962;2022-10-16T16:39:29;0.90;;;0.70;;
5898;SDS011;2975;50.956;6.962;2022-10-16T16:41:57;2.43;;;0.67;;
5898;SDS011;2975;50.956;6.962;2022-10-16T16:44:27;1.07;;;0.80;;
5898;SDS011;2975;50.956;6.962;2022-10-16T16:46:53;1.30;;;0.87;;
5898;SDS011;2975;50.956;6.962;2022-10-16T16:49:19;3.07;;;1.00;;
5898;SDS011;2975;50.956;6.962;2022-10-16T16:51:45;2.97;;;0.90;;
5898;SDS011;2975;50.956;6.962;2022-10-16T16:54:10;3.70;;;1.17;;
5898;SDS011;2975;50.956;6.962;2022-10-16T16:56:37;0.80;;;0.80;;
5898;SDS011;2975;50.956;6.962;2022-10-16T16:59:03;0.83;;;0.80;;
5898;SDS011;2975;50.956;6.962;2022-10-16T17:01:29;1.30;;;0.70;;
5898;SDS011;2975;50.956;6.962;2022-10-16T17:03:57;0.87;;;0.83;;
5898;SDS011;2975;50.956;6.962;2022-10-16T17:06:24;1.30;;;0.80;;
5898;SDS011;2975;50.956;6.962;2022-10-16T17:08:51;2.23;;;1.17;;
5898;SDS011;2975;50.956;6.962;2022-10-16T17:11:19;1.17;;;1.17;;
5898;SDS011;2975;50.956;6.962;2022-10-16T17:13:47;2.30;;;1.30;;
5898;SDS011;2975;50.956;6.962;2022-10-16T17:16:13;1.00;;;1.00;;
5898;SDS011;2975;50.956;6.962;2022-10-16T17:18:39;2.90;;;1.00;;
5898;SDS011;2975;50.956;6.962;2022-10-16T17:21:07;2.93;;;1.30;;
5898;SDS011;2975;50.956;6.962;2022-10-16T17:23:34;1.97;;;1.50;;
5898;SDS011;2975;50.956;6.962;2022-10-16T17:28:33;2.23;;;1.20;;
5898;SDS011;2975;50.956;6.962;2022-10-16T17:31:12;2.47;;;1.40;;
5898;SDS011;2975;50.956;6.962;2022-10-16T17:33:40;2.07;;;1.33;;
5898;SDS011;2975;50.956;6.962;2022-10-16T17:36:06;2.03;;;1.30;;
5898;SDS011;2975;50.956;6.962;2022-10-16T17:38:32;2.90;;;1.47;;
5898;SDS011;2975;50.956;6.962;2022-10-16T17:40:58;3.10;;;1.30;;
5898;SDS011;2975;50.956;6.962;2022-10-16T17:43:33;2.13;;;1.37;;
5898;SDS011;2975;50.956;6.962;2022-10-16T17:46:01;1.60;;;1.25;;
5898;SDS011;2975;50.956;6.962;2022-10-16T17:48:27;2.77;;;0.90;;
5898;SDS011;2975;50.956;6.962;2022-10-16T17:50:52;0.97;;;0.90;;
5898;SDS011;2975;50.956;6.962;2022-10-16T17:53:18;1.13;;;1.07;;
5898;SDS011;2975;50.956;6.962;2022-10-16T17:55:43;3.03;;;1.50;;
5898;SDS011;2975;50.956;6.962;2022-10-16T17:58:09;1.27;;;1.17;;
5898;SDS011;2975;50.956;6.962;2022-10-16T18:00:34;2.03;;;1.70;;
5898;SDS011;2975;50.956;6.962;2022-10-16T18:03:00;1.27;;;1.20;;
5898;SDS011;2975;50.956;6.962;2022-10-16T18:05:26;1.33;;;1.20;;
5898;SDS011;2975;50.956;6.962;2022-10-16T18:07:52;2.07;;;1.10;;
5898;SDS011;2975;50.956;6.962;2022-10-16T18:10:17;1.80;;;1.07;;
5898;SDS011;2975;50.956;6.962;2022-10-16T18:12:43;2.15;;;1.20;;
5898;SDS011;2975;50.956;6.962;2022-10-16T18:15:09;1.60;;;0.87;;
5898;SDS011;2975;50.956;6.962;2022-10-16T18:17:35;2.40;;;1.30;;
5898;SDS011;2975;50.956;6.962;2022-10-16T18:20:05;3.47;;;1.20;;
5898;SDS011;2975;50.956;6.962;2022-10-16T18:22:32;3.03;;;1.30;;
5898;SDS011;2975;50.956;6.962;2022-10-16T18:25:02;2.60;;;1.50;;
5898;SDS011;2975;50.956;6.962;2022-10-16T18:27:29;1.27;;;1.17;;
5898;SDS011;2975;50.956;6.962;2022-10-16T18:29:55;1.93;;;1.30;;
5898;SDS011;2975;50.956;6.962;2022-10-16T18:32:22;2.47;;;1.50;;
5898;SDS011;2975;50.956;6.962;2022-10-16T18:34:48;4.20;;;1.73;;